Time;durP1;ratioP1;P1;durP2;ratioP2;P2;SDS_P1;SDS_P2;PMS_P1;PMS_P2;Temp;Humidity;BMP_temperature;BMP_pressure;BME280_temperature;BME280_humidity;BME280_pressure;Samples;Min_cycle;Max_cycle;Signal;HPM_P1;HPM_P2
2022/03/03 00:02:18;;;;;;;;;;;2.30;64.90;;;;;;5037368;28;19925;-72
2022/03/03 00:04:44;;;;;;;;;;;2.30;65.20;;;;;;5034912;28;19948;-71
2022/03/03 00:07:11;;;;;;;;;;;2.30;64.90;;;;;;5036981;28;19992;-72
2022/03/03 00:09:38;;;;;;;;;;;2.30;64.90;;;;;;5034055;28;19925;-71
2022/03/03 00:12:05;;;;;;;;;;;2.20;65.00;;;;;;5036576;28;19932;-72
2022/03/03 00:14:33;;;;;;;;;;;2.30;65.80;;;;;;5035144;28;19925;-75
2022/03/03 00:17:00;;;;;;;;;;;2.40;65.90;;;;;;5035935;28;19925;-72
2022/03/03 00:19:26;;;;;;;;;;;2.50;64.70;;;;;;5034689;28;19925;-72
2022/03/03 00:21:53;;;;;;;;;;;2.60;64.60;;;;;;5036994;28;20012;-72
2022/03/03 00:24:20;;;;;;;;;;;2.50;64.00;;;;;;5034465;28;20323;-73
2022/03/03 00:26:46;;;;;;;;;;;2.50;64.30;;;;;;5033559;28;20451;-73
2022/03/03 00:29:13;;;;;;;;;;;2.50;65.40;;;;;;5030789;28;19964;-72
2022/03/03 00:31:41;;;;;;;;;;;2.40;65.20;;;;;;5032753;28;19932;-72
2022/03/03 00:34:08;;;;;;;;;;;2.40;65.10;;;;;;5031477;28;19925;-72
2022/03/03 00:36:35;;;;;;;;;;;2.40;65.50;;;;;;5033401;28;19948;-72
2022/03/03 00:39:01;;;;;;;;;;;2.30;65.70;;;;;;5031767;28;20031;-72
2022/03/03 00:41:28;;;;;;;;;;;2.30;65.60;;;;;;5031166;28;19925;-72
2022/03/03 00:43:55;;;;;;;;;;;2.30;66.30;;;;;;5031533;28;19933;-72
2022/03/03 00:46:25;;;;;;;;;;;2.20;66.20;;;;;;5032874;28;19925;-72
2022/03/03 00:48:54;;;;;;;;;;;2.20;66.70;;;;;;5031854;28;19933;-72
2022/03/03 00:51:21;;;;;;;;;;;2.10;67.50;;;;;;5033836;28;19925;-72
2022/03/03 00:53:49;;;;;;;;;;;2.10;67.50;;;;;;5029052;28;19925;-72
2022/03/03 00:56:16;;;;;;;;;;;2.10;68.20;;;;;;5032818;28;19925;-72
2022/03/03 00:58:43;;;;;;;;;;;2.10;68.20;;;;;;5036352;28;19932;-72
2022/03/03 01:01:10;;;;;;;;;;;2.10;68.50;;;;;;5038576;28;20008;-71
2022/03/03 01:03:37;;;;;;;;;;;2.20;68.70;;;;;;5036302;28;19968;-72
2022/03/03 01:06:05;;;;;;;;;;;2.00;68.90;;;;;;5035645;28;19925;-72
2022/03/03 01:08:31;;;;;;;;;;;2.00;69.10;;;;;;5035283;28;19925;-71
2022/03/03 01:10:58;;;;;;;;;;;1.90;69.60;;;;;;5032011;28;20460;-72
2022/03/03 01:13:25;;;;;;;;;;;1.80;70.00;;;;;;5033929;28;20384;-76
2022/03/03 01:15:53;;;;;;;;;;;1.80;71.10;;;;;;5031369;28;19972;-73
2022/03/03 01:18:20;;;;;;;;;;;1.80;71.70;;;;;;5034128;28;20032;-72
2022/03/03 01:20:46;;;;;;;;;;;1.80;72.40;;;;;;5031462;28;19931;-72
2022/03/03 01:23:14;;;;;;;;;;;1.80;73.10;;;;;;5032734;28;19925;-72
2022/03/03 01:25:41;;;;;;;;;;;1.70;73.90;;;;;;5031065;28;20019;-73
2022/03/03 01:28:08;;;;;;;;;;;1.70;74.30;;;;;;5033491;28;20015;-72
2022/03/03 01:30:35;;;;;;;;;;;1.70;75.20;;;;;;5030095;28;19925;-72
2022/03/03 01:33:02;;;;;;;;;;;1.80;75.80;;;;;;5032788;28;19931;-73
2022/03/03 01:35:28;;;;;;;;;;;1.90;76.10;;;;;;5030461;28;19956;-72
2022/03/03 01:37:55;;;;;;;;;;;1.90;76.50;;;;;;5032018;28;19931;-73
2022/03/03 01:40:23;;;;;;;;;;;1.90;76.10;;;;;;5031510;28;19924;-74
2022/03/03 01:42:50;;;;;;;;;;;1.90;76.50;;;;;;5032056;28;20323;-72
2022/03/03 01:45:17;;;;;;;;;;;1.70;77.00;;;;;;5019464;28;19935;-73
2022/03/03 01:47:43;;;;;;;;;;;1.60;78.30;;;;;;5035077;28;20031;-73
2022/03/03 01:50:10;;;;;;;;;;;1.60;79.40;;;;;;5032336;28;20016;-72
2022/03/03 01:52:37;;;;;;;;;;;1.60;80.20;;;;;;5033278;28;19925;-73
2022/03/03 01:55:04;;;;;;;;;;;1.60;80.70;;;;;;5029298;28;19932;-72
2022/03/03 01:57:32;;;;;;;;;;;1.50;81.50;;;;;;5032124;28;19925;-72
2022/03/03 01:59:59;;;;;;;;;;;1.50;82.20;;;;;;5031768;28;20031;-72
2022/03/03 02:02:27;;;;;;;;;;;1.50;82.50;;;;;;5031151;28;20015;-73
2022/03/03 02:04:54;;;;;;;;;;;1.50;83.50;;;;;;5033930;28;20004;-72
2022/03/03 02:07:21;;;;;;;;;;;1.40;84.00;;;;;;5035524;28;19925;-72
2022/03/03 02:09:48;;;;;;;;;;;1.30;84.80;;;;;;5033750;28;19932;-73
2022/03/03 02:12:14;;;;;;;;;;;1.30;85.60;;;;;;5035383;28;19925;-72
2022/03/03 02:14:44;;;;;;;;;;;1.30;86.30;;;;;;5033856;28;19925;-72
2022/03/03 02:17:10;;;;;;;;;;;1.40;87.30;;;;;;5034352;28;19987;-72
2022/03/03 02:19:37;;;;;;;;;;;1.20;88.30;;;;;;5033344;28;19924;-72
2022/03/03 02:22:06;;;;;;;;;;;1.20;90.30;;;;;;5035107;28;19925;-72
2022/03/03 02:24:33;;;;;;;;;;;1.10;91.60;;;;;;5033135;28;19935;-72
2022/03/03 02:27:01;;;;;;;;;;;1.10;92.40;;;;;;5034767;28;19929;-72
2022/03/03 02:29:28;;;;;;;;;;;1.10;92.70;;;;;;5033793;28;19925;-73
2022/03/03 02:31:54;;;;;;;;;;;1.20;92.70;;;;;;5034736;28;19926;-72
2022/03/03 02:34:21;;;;;;;;;;;1.30;92.60;;;;;;5033334;28;19936;-74
2022/03/03 02:36:48;;;;;;;;;;;1.40;92.50;;;;;;5035102;28;19925;-72
2022/03/03 02:39:16;;;;;;;;;;;1.40;92.20;;;;;;5033435;28;19931;-72
2022/03/03 02:41:43;;;;;;;;;;;1.50;91.90;;;;;;5035914;28;19925;-75
2022/03/03 02:44:09;;;;;;;;;;;1.50;91.80;;;;;;5038965;28;19926;-74
2022/03/03 02:46:36;;;;;;;;;;;1.60;91.70;;;;;;5039246;28;19933;-73
2022/03/03 02:49:04;;;;;;;;;;;1.50;91.60;;;;;;5031160;28;20632;-72
2022/03/03 02:51:31;;;;;;;;;;;1.40;91.50;;;;;;5036702;28;20028;-72
2022/03/03 02:53:58;;;;;;;;;;;1.40;91.70;;;;;;5032836;28;19933;-73
2022/03/03 02:56:26;;;;;;;;;;;1.50;91.80;;;;;;5034525;28;19925;-72
2022/03/03 02:58:52;;;;;;;;;;;1.40;91.60;;;;;;5035031;28;19925;-72
2022/03/03 03:01:19;;;;;;;;;;;1.40;91.80;;;;;;5034048;28;19925;-72
2022/03/03 03:03:46;;;;;;;;;;;1.40;91.90;;;;;;5034500;28;19973;-72
2022/03/03 03:06:14;;;;;;;;;;;1.30;92.00;;;;;;5034334;28;20398;-73
2022/03/03 03:08:41;;;;;;;;;;;1.30;92.20;;;;;;5033030;28;19929;-73
2022/03/03 03:11:08;;;;;;;;;;;1.30;92.20;;;;;;5033157;28;20011;-73
2022/03/03 03:13:36;;;;;;;;;;;1.20;92.20;;;;;;5033199;28;19925;-72
2022/03/03 03:16:03;;;;;;;;;;;1.30;92.20;;;;;;5033282;28;19925;-72
2022/03/03 03:18:29;;;;;;;;;;;1.30;92.10;;;;;;5032687;28;20019;-72
2022/03/03 03:20:56;;;;;;;;;;;1.30;91.90;;;;;;5031657;28;19951;-73
2022/03/03 03:23:25;;;;;;;;;;;1.30;91.70;;;;;;5033867;28;19995;-72
2022/03/03 03:25:52;;;;;;;;;;;1.30;91.60;;;;;;5030149;28;19925;-72
2022/03/03 03:28:19;;;;;;;;;;;1.30;91.50;;;;;;5033909;28;19931;-72
2022/03/03 03:30:48;;;;;;;;;;;1.20;91.50;;;;;;5032028;28;20016;-72
2022/03/03 03:33:17;;;;;;;;;;;1.20;91.50;;;;;;5034329;28;19925;-72
2022/03/03 03:35:43;;;;;;;;;;;1.20;91.50;;;;;;5032468;28;19925;-72
2022/03/03 03:38:10;;;;;;;;;;;1.20;91.40;;;;;;5033745;28;19931;-72
2022/03/03 03:40:37;;;;;;;;;;;1.20;91.60;;;;;;5031773;28;19929;-73
2022/03/03 03:43:04;;;;;;;;;;;1.10;91.60;;;;;;5033414;28;19929;-72
2022/03/03 03:45:31;;;;;;;;;;;1.20;91.60;;;;;;5029459;28;20020;-72
2022/03/03 03:47:59;;;;;;;;;;;1.00;91.60;;;;;;5032415;28;20269;-72
2022/03/03 03:50:26;;;;;;;;;;;1.00;91.80;;;;;;5031973;28;20299;-72
2022/03/03 03:52:53;;;;;;;;;;;1.00;91.70;;;;;;5031794;28;19948;-72
2022/03/03 03:55:20;;;;;;;;;;;1.00;91.80;;;;;;5026906;28;19925;-72
2022/03/03 03:57:46;;;;;;;;;;;1.10;91.70;;;;;;5033319;28;20424;-72
2022/03/03 04:00:14;;;;;;;;;;;1.00;91.70;;;;;;5031347;28;20356;-72
2022/03/03 04:02:41;;;;;;;;;;;0.90;92.00;;;;;;5033584;28;20400;-72
2022/03/03 04:05:09;;;;;;;;;;;0.80;92.00;;;;;;5031560;28;19932;-72
2022/03/03 04:07:37;;;;;;;;;;;0.80;92.30;;;;;;5033394;28;19925;-73
2022/03/03 04:10:04;;;;;;;;;;;0.80;92.60;;;;;;5031931;28;19925;-73
2022/03/03 04:12:30;;;;;;;;;;;0.80;92.50;;;;;;5033206;28;19931;-72
2022/03/03 04:14:57;;;;;;;;;;;0.90;92.50;;;;;;5030493;28;19929;-73
2022/03/03 04:17:24;;;;;;;;;;;1.00;92.60;;;;;;5032028;28;19925;-72
2022/03/03 04:19:50;;;;;;;;;;;0.90;92.40;;;;;;5030759;28;19932;-73
2022/03/03 04:22:19;;;;;;;;;;;0.90;92.40;;;;;;5032566;28;19929;-73
2022/03/03 04:24:45;;;;;;;;;;;0.80;92.40;;;;;;5033195;28;19925;-72
2022/03/03 04:27:12;;;;;;;;;;;0.80;92.60;;;;;;5033822;28;19932;-73
2022/03/03 04:29:39;;;;;;;;;;;0.80;92.80;;;;;;5031662;28;19926;-73
2022/03/03 04:32:06;;;;;;;;;;;0.80;92.80;;;;;;5033308;28;20288;-71
2022/03/03 04:34:32;;;;;;;;;;;0.80;92.60;;;;;;5031132;28;19932;-72
2022/03/03 04:36:59;;;;;;;;;;;0.90;92.40;;;;;;5032752;28;19931;-71
2022/03/03 04:39:27;;;;;;;;;;;0.80;92.40;;;;;;5030859;28;19925;-72
2022/03/03 04:41:53;;;;;;;;;;;0.80;92.60;;;;;;5032434;28;19925;-71
2022/03/03 04:44:20;;;;;;;;;;;0.80;92.50;;;;;;5030770;28;19932;-71
2022/03/03 04:46:47;;;;;;;;;;;0.90;92.30;;;;;;5031273;28;19971;-72
2022/03/03 04:49:14;;;;;;;;;;;0.90;92.10;;;;;;5028356;28;19925;-71
2022/03/03 04:51:41;;;;;;;;;;;0.90;91.90;;;;;;5032349;28;19932;-72
2022/03/03 04:54:09;;;;;;;;;;;0.90;91.80;;;;;;5028899;28;20012;-72
2022/03/03 04:56:37;;;;;;;;;;;0.90;91.90;;;;;;5032205;28;19932;-72
2022/03/03 04:59:04;;;;;;;;;;;0.90;92.10;;;;;;5031454;28;20011;-71
2022/03/03 05:01:31;;;;;;;;;;;0.90;91.90;;;;;;5032071;28;20269;-71
2022/03/03 05:03:57;;;;;;;;;;;0.90;91.90;;;;;;5030283;28;20320;-71
2022/03/03 05:06:24;;;;;;;;;;;0.70;92.30;;;;;;5031922;28;20003;-71
2022/03/03 05:08:51;;;;;;;;;;;0.60;92.80;;;;;;5030186;28;20395;-72
2022/03/03 05:11:17;;;;;;;;;;;0.50;93.00;;;;;;5032161;28;19925;-71
2022/03/03 05:13:45;;;;;;;;;;;0.60;93.20;;;;;;5030242;28;19925;-72
2022/03/03 05:16:12;;;;;;;;;;;0.60;93.10;;;;;;5033543;28;20016;-72
2022/03/03 05:18:39;;;;;;;;;;;0.60;93.40;;;;;;5035591;28;19925;-72
2022/03/03 05:21:05;;;;;;;;;;;0.70;93.50;;;;;;5034893;28;19994;-72
2022/03/03 05:23:32;;;;;;;;;;;0.70;93.40;;;;;;5034078;28;19925;-72
2022/03/03 05:25:58;;;;;;;;;;;0.70;93.50;;;;;;5033586;28;19931;-72
2022/03/03 05:28:26;;;;;;;;;;;0.60;93.60;;;;;;5033453;28;20012;-72
2022/03/03 05:30:54;;;;;;;;;;;0.60;93.80;;;;;;5030912;28;20023;-72
2022/03/03 05:33:21;;;;;;;;;;;0.70;93.90;;;;;;5034202;28;20319;-72
2022/03/03 05:35:48;;;;;;;;;;;0.70;93.70;;;;;;5033966;28;19929;-73
2022/03/03 05:38:15;;;;;;;;;;;0.70;93.70;;;;;;5035378;28;19972;-72
2022/03/03 05:40:42;;;;;;;;;;;0.70;93.80;;;;;;5033652;28;19925;-72
2022/03/03 05:43:09;;;;;;;;;;;0.70;93.90;;;;;;5035704;28;20307;-73
2022/03/03 05:45:36;;;;;;;;;;;0.70;93.90;;;;;;5033026;28;19964;-72
2022/03/03 05:48:04;;;;;;;;;;;0.70;93.90;;;;;;5035679;28;19931;-72
2022/03/03 05:50:31;;;;;;;;;;;0.70;93.90;;;;;;5034250;28;20012;-71
2022/03/03 05:52:59;;;;;;;;;;;0.70;94.00;;;;;;5036443;28;19929;-72
2022/03/03 05:55:26;;;;;;;;;;;0.60;94.00;;;;;;5035090;28;20039;-71
2022/03/03 05:57:54;;;;;;;;;;;0.60;94.10;;;;;;5036007;28;20017;-72
2022/03/03 06:00:21;;;;;;;;;;;0.70;94.20;;;;;;5034012;28;19925;-72
2022/03/03 06:02:49;;;;;;;;;;;0.70;94.20;;;;;;5036025;28;19932;-72
2022/03/03 06:05:19;;;;;;;;;;;0.70;94.30;;;;;;5037521;28;19925;-73
2022/03/03 06:07:46;;;;;;;;;;;0.60;94.30;;;;;;5040886;28;20015;-72
2022/03/03 06:10:14;;;;;;;;;;;0.60;94.40;;;;;;5037158;28;20332;-72
2022/03/03 06:12:47;;;;;;;;;;;0.60;94.60;;;;;;5040180;28;20447;-71
2022/03/03 06:15:14;;;;;;;;;;;0.50;94.60;;;;;;5033438;28;20269;-72
2022/03/03 06:17:43;;;;;;;;;;;0.60;94.90;;;;;;5035501;28;19931;-72
2022/03/03 06:20:10;;;;;;;;;;;0.50;94.90;;;;;;5032655;28;19932;-72
2022/03/03 06:22:38;;;;;;;;;;;0.50;94.90;;;;;;5034079;28;19953;-72
2022/03/03 06:25:05;;;;;;;;;;;0.60;95.20;;;;;;5033406;28;19925;-72
2022/03/03 06:27:32;;;;;;;;;;;0.60;95.10;;;;;;5034835;28;20015;-72
2022/03/03 06:29:59;;;;;;;;;;;0.60;95.20;;;;;;5033551;28;19931;-73
2022/03/03 06:32:25;;;;;;;;;;;0.60;95.30;;;;;;5035304;28;19925;-72
2022/03/03 06:34:52;;;;;;;;;;;0.60;95.30;;;;;;5032747;28;19929;-72
2022/03/03 06:37:19;;;;;;;;;;;0.50;95.30;;;;;;5034820;28;19931;-73
2022/03/03 06:39:47;;;;;;;;;;;0.60;95.40;;;;;;5030754;28;19932;-72
2022/03/03 06:42:14;;;;;;;;;;;0.60;95.50;;;;;;5034870;28;19929;-72
2022/03/03 06:44:40;;;;;;;;;;;0.60;95.60;;;;;;5030477;28;19931;-72
2022/03/03 06:47:07;;;;;;;;;;;0.60;95.70;;;;;;5034760;28;19925;-72
2022/03/03 06:49:34;;;;;;;;;;;0.60;95.70;;;;;;5032644;28;19932;-72
2022/03/03 06:52:02;;;;;;;;;;;0.70;95.70;;;;;;5034739;28;19925;-72
2022/03/03 06:54:32;;;;;;;;;;;0.70;95.50;;;;;;5033224;28;20388;-72
2022/03/03 06:57:00;;;;;;;;;;;0.70;95.60;;;;;;5035318;28;20483;-72
2022/03/03 06:59:28;;;;;;;;;;;0.60;95.60;;;;;;5032862;28;20019;-72
2022/03/03 07:01:56;;;;;;;;;;;0.60;96.00;;;;;;5034158;28;19925;-72
2022/03/03 07:04:26;;;;;;;;;;;0.70;96.00;;;;;;5030832;28;19925;-73
2022/03/03 07:06:53;;;;;;;;;;;0.70;96.10;;;;;;5034034;28;20335;-72
2022/03/03 07:09:20;;;;;;;;;;;0.80;96.00;;;;;;5032524;28;19931;-72
2022/03/03 07:11:47;;;;;;;;;;;0.90;95.80;;;;;;5034113;28;20372;-72
2022/03/03 07:14:15;;;;;;;;;;;0.90;95.70;;;;;;5027748;28;19925;-72
2022/03/03 07:16:44;;;;;;;;;;;1.00;95.70;;;;;;5032846;28;19932;-73
2022/03/03 07:19:19;;;;;;;;;;;1.10;95.50;;;;;;5033871;28;19929;-72
2022/03/03 07:21:56;;;;;;;;;;;1.10;95.40;;;;;;5035817;28;19925;-71
2022/03/03 07:24:26;;;;;;;;;;;1.20;95.30;;;;;;5032855;28;19925;-72
2022/03/03 07:26:56;;;;;;;;;;;1.20;95.10;;;;;;5034301;28;20526;-72
2022/03/03 07:29:26;;;;;;;;;;;1.40;95.00;;;;;;5029956;28;20013;-72
2022/03/03 07:31:55;;;;;;;;;;;1.50;95.00;;;;;;5033859;28;19932;-72
2022/03/03 07:34:26;;;;;;;;;;;1.50;94.60;;;;;;5032699;28;19932;-72
2022/03/03 07:36:55;;;;;;;;;;;1.60;94.60;;;;;;5033820;28;19925;-72
2022/03/03 07:39:30;;;;;;;;;;;1.70;94.40;;;;;;5032799;28;19925;-73
2022/03/03 07:41:57;;;;;;;;;;;1.70;94.30;;;;;;5033920;28;19925;-72
2022/03/03 07:44:25;;;;;;;;;;;1.80;94.00;;;;;;5029310;28;19933;-72
2022/03/03 07:46:53;;;;;;;;;;;1.90;93.80;;;;;;5032433;28;20008;-72
2022/03/03 07:49:20;;;;;;;;;;;2.00;93.70;;;;;;5029121;28;20411;-72
2022/03/03 07:51:48;;;;;;;;;;;2.10;93.40;;;;;;5033781;28;20299;-72
2022/03/03 07:54:14;;;;;;;;;;;2.10;93.20;;;;;;5030139;28;20356;-71
2022/03/03 07:56:42;;;;;;;;;;;2.30;92.90;;;;;;5033652;28;20289;-72
2022/03/03 07:59:11;;;;;;;;;;;2.30;93.00;;;;;;5031427;28;20307;-72
2022/03/03 08:01:39;;;;;;;;;;;2.50;92.30;;;;;;5030000;28;19925;-72
2022/03/03 08:04:06;;;;;;;;;;;2.50;91.70;;;;;;5017775;28;20371;-72
2022/03/03 08:06:33;;;;;;;;;;;2.70;91.90;;;;;;5032989;28;19925;-73
2022/03/03 08:09:00;;;;;;;;;;;2.80;91.90;;;;;;5029379;28;19937;-73
2022/03/03 08:11:27;;;;;;;;;;;3.10;91.80;;;;;;5032693;28;19964;-73
2022/03/03 08:13:54;;;;;;;;;;;4.90;87.20;;;;;;5031408;28;19960;-73
2022/03/03 08:16:24;;;;;;;;;;;6.40;74.60;;;;;;5033201;28;20384;-72
2022/03/03 08:18:54;;;;;;;;;;;7.30;63.60;;;;;;5030960;28;20412;-73
2022/03/03 08:21:21;;;;;;;;;;;7.80;58.60;;;;;;5032869;28;19925;-73
2022/03/03 08:23:48;;;;;;;;;;;8.10;55.80;;;;;;5031044;28;19932;-73
2022/03/03 08:26:16;;;;;;;;;;;8.50;54.30;;;;;;5032809;28;20031;-73
2022/03/03 08:28:44;;;;;;;;;;;8.40;52.00;;;;;;5029187;28;21290;-73
2022/03/03 08:31:13;;;;;;;;;;;8.80;50.20;;;;;;5032931;28;20430;-73
2022/03/03 08:33:41;;;;;;;;;;;8.80;50.00;;;;;;5031289;28;20023;-73
2022/03/03 08:36:18;;;;;;;;;;;9.00;48.40;;;;;;5012833;28;19926;-72
2022/03/03 08:38:47;;;;;;;;;;;8.90;49.50;;;;;;5012498;28;20288;-73
2022/03/03 08:41:14;;;;;;;;;;;8.90;48.80;;;;;;5032163;28;20400;-72
2022/03/03 08:43:41;;;;;;;;;;;9.40;47.30;;;;;;5031195;28;19931;-72
2022/03/03 08:46:08;;;;;;;;;;;9.10;48.40;;;;;;5032811;28;19932;-72
2022/03/03 08:48:35;;;;;;;;;;;10.50;44.80;;;;;;5025757;28;19932;-72
2022/03/03 08:51:03;;;;;;;;;;;10.50;41.30;;;;;;5031964;28;20467;-72
2022/03/03 08:53:31;;;;;;;;;;;10.40;40.40;;;;;;5032953;28;19975;-72
2022/03/03 08:56:00;;;;;;;;;;;11.20;38.00;;;;;;5030232;28;20020;-73
2022/03/03 08:58:27;;;;;;;;;;;12.80;35.70;;;;;;5032391;28;19925;-73
2022/03/03 09:00:54;;;;;;;;;;;13.50;28.60;;;;;;5030715;28;19925;-74
2022/03/03 09:03:22;;;;;;;;;;;12.50;27.10;;;;;;5032232;28;19929;-73
2022/03/03 09:05:49;;;;;;;;;;;11.10;29.70;;;;;;5031859;28;19983;-72
2022/03/03 09:08:16;;;;;;;;;;;11.80;30.50;;;;;;5034226;28;19932;-72
2022/03/03 09:10:44;;;;;;;;;;;12.60;27.80;;;;;;5036822;28;19925;-73
2022/03/03 09:13:11;;;;;;;;;;;13.20;27.60;;;;;;5037266;28;19925;-72
2022/03/03 09:15:38;;;;;;;;;;;13.60;25.00;;;;;;5036419;28;20323;-73
2022/03/03 09:18:05;;;;;;;;;;;13.80;25.00;;;;;;5036884;28;20299;-72
2022/03/03 09:20:32;;;;;;;;;;;14.80;23.20;;;;;;5034303;28;19944;-72
2022/03/03 09:22:59;;;;;;;;;;;15.30;21.70;;;;;;5037340;28;20055;-72
2022/03/03 09:25:26;;;;;;;;;;;15.00;21.20;;;;;;5033822;28;20012;-72
2022/03/03 09:27:54;;;;;;;;;;;13.00;23.20;;;;;;5035645;28;19929;-72
2022/03/03 09:30:21;;;;;;;;;;;10.80;27.20;;;;;;5036324;28;20380;-72
2022/03/03 09:32:48;;;;;;;;;;;10.30;29.10;;;;;;5033919;28;19940;-75
2022/03/03 09:35:15;;;;;;;;;;;10.90;28.70;;;;;;5040400;28;19969;-73
2022/03/03 09:37:41;;;;;;;;;;;11.60;28.10;;;;;;5036855;28;19988;-73
2022/03/03 09:40:09;;;;;;;;;;;12.90;26.00;;;;;;5034339;28;20003;-73
2022/03/03 09:42:36;;;;;;;;;;;12.00;26.40;;;;;;5033554;28;19932;-73
2022/03/03 09:45:05;;;;;;;;;;;11.80;26.90;;;;;;5035819;28;20020;-73
2022/03/03 09:47:34;;;;;;;;;;;10.10;30.30;;;;;;5034163;28;19967;-73
2022/03/03 09:50:00;;;;;;;;;;;9.30;33.60;;;;;;5032229;28;20015;-74
2022/03/03 09:52:28;;;;;;;;;;;8.60;36.20;;;;;;5034229;28;19932;-73
2022/03/03 09:54:56;;;;;;;;;;;8.20;37.00;;;;;;5034322;28;19925;-73
2022/03/03 09:57:24;;;;;;;;;;;7.80;37.90;;;;;;5033293;28;20046;-73
2022/03/03 09:59:52;;;;;;;;;;;8.00;38.60;;;;;;5033586;28;20430;-73
2022/03/03 10:02:20;;;;;;;;;;;8.10;39.00;;;;;;5032794;28;19925;-73
2022/03/03 10:04:47;;;;;;;;;;;8.00;39.60;;;;;;5034133;28;20004;-72
2022/03/03 10:07:14;;;;;;;;;;;8.10;39.80;;;;;;5035880;28;19972;-73
2022/03/03 10:12:22;;;;;;;;;;;7.80;41.80;;;;;;5030445;28;19979;-73
2022/03/03 10:14:49;;;;;;;;;;;7.50;42.10;;;;;;5033577;28;19925;-73
2022/03/03 10:17:16;;;;;;;;;;;7.60;42.40;;;;;;5031409;28;19925;-73
2022/03/03 10:19:53;;;;;;;;;;;7.70;42.50;;;;;;5033001;28;19951;-74
2022/03/03 10:22:24;;;;;;;;;;;7.80;42.10;;;;;;5033387;28;19925;-73
2022/03/03 10:24:51;;;;;;;;;;;7.80;42.70;;;;;;5033588;28;19929;-72
2022/03/03 10:27:20;;;;;;;;;;;7.90;42.80;;;;;;5032254;28;19925;-73
2022/03/03 10:29:47;;;;;;;;;;;8.00;42.20;;;;;;5033918;28;19925;-72
2022/03/03 10:32:22;;;;;;;;;;;8.20;42.00;;;;;;5031394;28;19925;-72
2022/03/03 10:34:53;;;;;;;;;;;8.20;41.70;;;;;;5033196;28;20035;-72
2022/03/03 10:37:23;;;;;;;;;;;8.20;42.40;;;;;;5031946;28;20380;-73
2022/03/03 10:39:56;;;;;;;;;;;8.30;42.30;;;;;;5030871;28;19929;-74
2022/03/03 10:42:23;;;;;;;;;;;8.30;42.00;;;;;;5034539;28;19961;-73
2022/03/03 10:44:51;;;;;;;;;;;8.50;42.20;;;;;;5032619;28;19972;-72
2022/03/03 10:47:21;;;;;;;;;;;8.40;41.00;;;;;;5034796;28;19972;-72
2022/03/03 10:49:48;;;;;;;;;;;8.30;41.00;;;;;;5033298;28;20022;-72
2022/03/03 10:52:16;;;;;;;;;;;8.40;41.60;;;;;;5033822;28;19929;-73
2022/03/03 10:54:54;;;;;;;;;;;8.70;41.70;;;;;;5033004;28;19925;-73
2022/03/03 10:57:39;;;;;;;;;;;8.80;40.90;;;;;;5034443;28;20370;-73
2022/03/03 11:00:07;;;;;;;;;;;8.80;40.50;;;;;;5032670;28;19925;-73
2022/03/03 11:02:34;;;;;;;;;;;9.00;40.30;;;;;;5034165;28;19925;-73
2022/03/03 11:05:02;;;;;;;;;;;9.30;40.60;;;;;;5033499;28;19925;-73
2022/03/03 11:07:28;;;;;;;;;;;9.40;39.70;;;;;;5034982;28;19972;-72
2022/03/03 11:09:57;;;;;;;;;;;9.40;39.30;;;;;;5033404;28;20184;-72
2022/03/03 11:12:25;;;;;;;;;;;9.50;38.70;;;;;;5035727;28;19928;-74
2022/03/03 11:14:53;;;;;;;;;;;9.40;39.40;;;;;;5032902;28;19925;-72
2022/03/03 11:17:20;;;;;;;;;;;9.50;40.10;;;;;;5034797;28;19925;-73
2022/03/03 11:19:47;;;;;;;;;;;9.70;40.50;;;;;;5032047;28;20384;-73
2022/03/03 11:22:16;;;;;;;;;;;9.60;39.80;;;;;;5031833;28;20367;-73
2022/03/03 11:24:43;;;;;;;;;;;9.60;40.20;;;;;;5030395;28;20032;-76
2022/03/03 11:27:11;;;;;;;;;;;9.70;40.40;;;;;;5034339;28;19979;-73
2022/03/03 11:29:38;;;;;;;;;;;9.90;39.60;;;;;;5033150;28;19929;-72
2022/03/03 11:32:06;;;;;;;;;;;9.90;39.60;;;;;;5032508;28;19925;-72
2022/03/03 11:34:46;;;;;;;;;;;10.00;39.70;;;;;;5031173;28;20119;-73
2022/03/03 11:37:16;;;;;;;;;;;10.30;37.70;;;;;;5034069;28;19925;-73
2022/03/03 11:39:45;;;;;;;;;;;10.30;37.50;;;;;;5030981;28;20261;-72
2022/03/03 11:42:21;;;;;;;;;;;10.40;37.80;;;;;;5032879;28;19925;-73
2022/03/03 11:44:48;;;;;;;;;;;10.30;38.30;;;;;;5032130;28;19979;-73
2022/03/03 11:47:19;;;;;;;;;;;10.40;37.00;;;;;;5033772;28;19925;-74
2022/03/03 11:50:06;;;;;;;;;;;10.50;38.60;;;;;;5028490;28;19925;-73
2022/03/03 11:52:33;;;;;;;;;;;10.50;37.30;;;;;;5019086;28;19986;-71
2022/03/03 11:55:20;;;;;;;;;;;10.60;37.70;;;;;;5031875;28;20365;-73
2022/03/03 11:57:48;;;;;;;;;;;10.80;37.60;;;;;;5033334;28;19960;-73
2022/03/03 12:00:18;;;;;;;;;;;11.00;35.90;;;;;;5031851;28;19932;-73
2022/03/03 12:02:53;;;;;;;;;;;11.00;36.30;;;;;;5033495;28;19925;-73
2022/03/03 12:05:38;;;;;;;;;;;10.80;36.60;;;;;;5031621;28;19931;-73
2022/03/03 12:08:06;;;;;;;;;;;10.80;37.10;;;;;;5032406;28;19932;-73
2022/03/03 12:10:34;;;;;;;;;;;11.20;37.70;;;;;;5029677;28;20292;-73
2022/03/03 12:13:19;;;;;;;;;;;11.20;35.70;;;;;;5031242;28;20016;-72
2022/03/03 12:16:09;;;;;;;;;;;11.40;36.80;;;;;;5031099;28;19960;-73
2022/03/03 12:18:36;;;;;;;;;;;11.70;35.30;;;;;;5030686;28;20396;-73
2022/03/03 12:21:18;;;;;;;;;;;11.90;34.40;;;;;;5032915;28;19925;-74
2022/03/03 12:23:44;;;;;;;;;;;12.00;34.70;;;;;;5029062;28;20009;-74
2022/03/03 12:26:11;;;;;;;;;;;11.90;35.40;;;;;;5032710;28;19973;-72
2022/03/03 12:28:40;;;;;;;;;;;11.70;36.00;;;;;;5031700;28;20383;-72
2022/03/03 12:31:22;;;;;;;;;;;11.90;35.30;;;;;;5032486;28;19925;-72
2022/03/03 12:33:56;;;;;;;;;;;11.70;35.20;;;;;;5031660;28;20464;-72
2022/03/03 12:36:23;;;;;;;;;;;11.90;35.50;;;;;;5030425;28;20392;-71
2022/03/03 12:38:49;;;;;;;;;;;12.20;34.50;;;;;;5030503;28;19929;-72
2022/03/03 12:41:16;;;;;;;;;;;12.40;34.50;;;;;;5032193;28;20416;-74
2022/03/03 12:43:43;;;;;;;;;;;12.50;32.80;;;;;;5029926;28;19925;-71
2022/03/03 12:46:10;;;;;;;;;;;12.50;33.30;;;;;;5032008;28;20253;-72
2022/03/03 12:48:39;;;;;;;;;;;12.60;32.80;;;;;;5031343;28;19925;-72
2022/03/03 12:51:06;;;;;;;;;;;12.20;33.40;;;;;;5032241;28;20008;-73
2022/03/03 12:53:34;;;;;;;;;;;12.40;33.90;;;;;;5030571;28;19948;-72
2022/03/03 12:56:00;;;;;;;;;;;12.20;34.00;;;;;;5030765;28;19925;-73
2022/03/03 12:58:30;;;;;;;;;;;12.10;34.10;;;;;;5032072;28;19925;-71
2022/03/03 13:00:57;;;;;;;;;;;12.30;34.90;;;;;;5031125;28;20303;-72
2022/03/03 13:03:24;;;;;;;;;;;12.60;33.70;;;;;;5032048;28;20348;-71
2022/03/03 13:05:52;;;;;;;;;;;12.70;33.40;;;;;;5028179;28;19925;-72
2022/03/03 13:08:23;;;;;;;;;;;12.60;34.00;;;;;;5032373;28;19925;-72
2022/03/03 13:10:51;;;;;;;;;;;12.90;33.50;;;;;;5030132;28;20019;-72
2022/03/03 13:13:18;;;;;;;;;;;12.90;33.10;;;;;;5032271;28;19947;-72
2022/03/03 13:15:45;;;;;;;;;;;13.00;33.20;;;;;;5030695;28;19925;-73
2022/03/03 13:18:14;;;;;;;;;;;13.00;33.10;;;;;;5032146;28;19947;-72
2022/03/03 13:20:42;;;;;;;;;;;12.60;34.80;;;;;;5030060;28;20342;-73
2022/03/03 13:23:11;;;;;;;;;;;12.60;35.00;;;;;;5030657;28;19939;-72
2022/03/03 13:25:38;;;;;;;;;;;12.70;35.60;;;;;;5030330;28;19932;-72
2022/03/03 13:28:04;;;;;;;;;;;12.50;35.60;;;;;;5032322;28;20023;-73
2022/03/03 13:30:31;;;;;;;;;;;12.60;36.20;;;;;;5029977;28;19925;-72
2022/03/03 13:32:58;;;;;;;;;;;12.60;35.60;;;;;;5032096;28;19925;-71
2022/03/03 13:35:26;;;;;;;;;;;12.50;35.00;;;;;;5029709;28;19926;-72
2022/03/03 13:37:53;;;;;;;;;;;12.60;35.30;;;;;;5031554;28;19987;-72
2022/03/03 13:40:23;;;;;;;;;;;12.80;35.20;;;;;;5029771;28;19925;-72
2022/03/03 13:42:54;;;;;;;;;;;12.70;36.00;;;;;;5031784;28;19936;-71
2022/03/03 13:45:25;;;;;;;;;;;12.30;35.30;;;;;;5029965;28;20016;-72
2022/03/03 13:48:00;;;;;;;;;;;12.40;36.40;;;;;;5030773;28;19925;-71
2022/03/03 13:50:27;;;;;;;;;;;12.40;36.60;;;;;;5026342;28;19932;-73
2022/03/03 13:52:54;;;;;;;;;;;12.50;37.20;;;;;;5031612;28;19925;-74
2022/03/03 13:55:22;;;;;;;;;;;12.60;36.30;;;;;;5032205;28;19961;-72
2022/03/03 13:57:50;;;;;;;;;;;12.60;36.70;;;;;;5034813;28;20348;-73
2022/03/03 14:00:20;;;;;;;;;;;12.70;37.40;;;;;;5033280;28;20687;-74
2022/03/03 14:02:51;;;;;;;;;;;12.60;36.50;;;;;;5034733;28;20407;-72
2022/03/03 14:05:18;;;;;;;;;;;12.80;37.00;;;;;;5034020;28;20340;-71
2022/03/03 14:07:50;;;;;;;;;;;12.60;36.70;;;;;;5035752;28;20012;-71
2022/03/03 14:10:19;;;;;;;;;;;12.80;36.80;;;;;;5034555;28;19926;-71
2022/03/03 14:13:04;;;;;;;;;;;12.80;36.80;;;;;;5034831;28;20015;-73
2022/03/03 14:15:31;;;;;;;;;;;12.70;36.10;;;;;;5033396;28;19933;-72
2022/03/03 14:17:57;;;;;;;;;;;12.70;37.40;;;;;;5034644;28;19979;-72
2022/03/03 14:20:25;;;;;;;;;;;12.80;36.10;;;;;;5032427;28;20020;-72
2022/03/03 14:22:55;;;;;;;;;;;12.80;36.20;;;;;;5034435;28;19925;-72
2022/03/03 14:25:22;;;;;;;;;;;12.70;36.50;;;;;;5033072;28;19925;-72
2022/03/03 14:27:48;;;;;;;;;;;12.60;36.50;;;;;;5029962;28;19931;-71
2022/03/03 14:30:16;;;;;;;;;;;12.50;37.70;;;;;;5030231;28;19937;-72
2022/03/03 14:32:43;;;;;;;;;;;12.50;37.00;;;;;;5032466;28;19929;-72
2022/03/03 14:35:10;;;;;;;;;;;12.70;37.90;;;;;;5029897;28;19925;-72